< < Back
Terminal Aerodrome Forecast


Current Version              Previous Versions:   1  2  3  4  5  6  7  8  9  

Terminal Aerodrome Forecast

119
FTUS44 KBMX 040520
TAFMGM
TAF
KMGM 040520Z 0406/0506 31005KT P6SM BKN120
     FM041400 32009KT P6SM SKC
     FM041800 30013G23KT P6SM SCT050
     FM050100 29007KT P6SM SCT250=

Latest METAR

548
SAUS80 KWBC 050100 RRB
MTRMGM
METAR KMGM 050053Z 23004KT 10SM CLR 19/10 A2977 RMK AO2 SLP077
T01890100


USA.gov is the U.S. government's official web portal to all federal, state and local government web resources and services.